Midnight Tide — YJWE2 — position and weather

sailwx.info

Track history (hours):
 
Tides and Currents Weather Stations Pressure Air Temp Water Temp Dewpoint Dewpoint Depression Visibility Wind Speed Wind Dir Waves Ship Positions

Midnight Tide

Last reported at 2017-Sep-08 09:23 UTC. Time now 2017-Sep-21 03:12 UTC.
Position N 16°48' W 062°25'.
Warning: this ship's position is 12 days out of date.

Length 62 m; draft 2.5 m.

Type: Ship (hazmat cat A). MMSI: 577366000.

Date/timePositionNaut miles runAvg speedWind from/ knotsBaromVisibWave heightAir tempDewpointWater temp
2017-Sep-08 09:23N 16°48' W 062°25'4 9.3
2017-Sep-08 09:00N 16°45' W 062°23'5 9.3
2017-Sep-08 08:30N 16°41' W 062°21'5 9.0
2017-Sep-08 08:00N 16°37' W 062°18'4 8.9
2017-Sep-08 07:30N 16°33' W 062°16'4 8.8
2017-Sep-08 07:00N 16°29' W 062°13'5 9.0
2017-Sep-08 06:30N 16°25' W 062°11'5 9.2
2017-Sep-08 05:58N 16°21' W 062°08'38 9.2
2017-Sep-08 01:49N 15°49' W 061°47'8 9.7
2017-Sep-08 00:57N 15°42' W 061°43'5 9.8
2017-Sep-08 00:26N 15°37' W 061°40'78 9.7
2017-Sep-07 16:25N 14°25' W 061°09'410.1
2017-Sep-07 16:00N 14°21' W 061°07'810.0
2017-Sep-07 15:13N 14°14' W 061°05'  
2017-Sep-04 18:31N 18°19' W 064°31'0 9.4
2017-Sep-04 18:30N 18°20' W 064°31'5 9.2
2017-Sep-04 18:00N 18°23' W 064°34'3 1.0
2017-Sep-04 15:28N 18°25' W 064°36'510.2
2017-Sep-04 15:00N 18°25' W 064°31'5 5.0
2017-Sep-04 14:01N 18°27' W 064°26'0 0.1
2017-Sep-04 13:55N 18°27' W 064°26'9 3.4
2017-Sep-04 11:10N 18°25' W 064°36'0 0.0
2017-Sep-03 20:12N 18°25' W 064°36'2 9.1
2017-Sep-03 20:00N 18°23' W 064°36'1 2.8
2017-Sep-03 19:30N 18°22' W 064°35'0 0.0
2017-Sep-03 19:00N 18°22' W 064°35'0 0.1
2017-Sep-03 18:30N 18°22' W 064°35'0 0.0
2017-Sep-03 18:00N 18°22' W 064°35'  
Track history (hours):
 
Tides and Currents Weather Stations Pressure Air Temp Water Temp Dewpoint Dewpoint Depression Visibility Wind Speed Wind Dir Waves Ship Positions

Midnight Tide

Last reported at 2017-Sep-08 09:23 UTC. Time now 2017-Sep-21 03:12 UTC.
Position N 16°48' W 062°25'.
Warning: this ship's position is 12 days out of date.

Length 62 m; draft 2.5 m.

Type: Ship (hazmat cat A). MMSI: 577366000.

Date/timePositionNaut miles runAvg speedWind from/ knotsBaromVisibWave heightAir tempDewpointWater temp
2017-Sep-08 09:23N 16°48' W 062°25'4 9.3
2017-Sep-08 09:00N 16°45' W 062°23'5 9.3
2017-Sep-08 08:30N 16°41' W 062°21'5 9.0
2017-Sep-08 08:00N 16°37' W 062°18'4 8.9
2017-Sep-08 07:30N 16°33' W 062°16'4 8.8
2017-Sep-08 07:00N 16°29' W 062°13'5 9.0
2017-Sep-08 06:30N 16°25' W 062°11'5 9.2
2017-Sep-08 05:58N 16°21' W 062°08'38 9.2
2017-Sep-08 01:49N 15°49' W 061°47'8 9.7
2017-Sep-08 00:57N 15°42' W 061°43'5 9.8
2017-Sep-08 00:26N 15°37' W 061°40'78 9.7
2017-Sep-07 16:25N 14°25' W 061°09'410.1
2017-Sep-07 16:00N 14°21' W 061°07'810.0
2017-Sep-07 15:13N 14°14' W 061°05'  
2017-Sep-04 18:31N 18°19' W 064°31'0 9.4
2017-Sep-04 18:30N 18°20' W 064°31'5 9.2
2017-Sep-04 18:00N 18°23' W 064°34'3 1.0
2017-Sep-04 15:28N 18°25' W 064°36'510.2
2017-Sep-04 15:00N 18°25' W 064°31'5 5.0
2017-Sep-04 14:01N 18°27' W 064°26'0 0.1
2017-Sep-04 13:55N 18°27' W 064°26'9 3.4
2017-Sep-04 11:10N 18°25' W 064°36'0 0.0
2017-Sep-03 20:12N 18°25' W 064°36'2 9.1
2017-Sep-03 20:00N 18°23' W 064°36'1 2.8
2017-Sep-03 19:30N 18°22' W 064°35'0 0.0
2017-Sep-03 19:00N 18°22' W 064°35'0 0.1
2017-Sep-03 18:30N 18°22' W 064°35'0 0.0
2017-Sep-03 18:00N 18°22' W 064°35'  

Dump ship's entire track history